Time,TemperatureF,DewpointF,PressureIn,WindDirection,WindDirectionDegrees,WindSpeedMPH,WindSpeedGustMPH,Humidity,HourlyPrecipIn,Conditions,Clouds,dailyrainin,SoftwareType,DateUTC
2013-08-06 00:10:00,55.9,52.0,29.95,South,175,0.0,-999.0,85,-99.99,,,0.00,weatherlink.com 1.10,2013-08-06 04:10:00,
2013-08-06 00:25:00,56.3,51.0,29.95,SE,142,0.0,-999.0,81,-99.99,,,0.00,weatherlink.com 1.10,2013-08-06 04:25:00,
2013-08-06 00:40:00,55.6,51.0,29.95,SE,142,0.0,-999.0,84,-99.99,,,0.00,weatherlink.com 1.10,2013-08-06 04:40:00,
2013-08-06 00:55:00,55.1,50.0,29.95,SE,142,0.0,-999.0,84,-99.99,,,0.00,weatherlink.com 1.10,2013-08-06 04:55:00,
2013-08-06 01:10:00,54.8,50.0,29.95,SE,142,0.0,-999.0,85,-99.99,,,0.00,weatherlink.com 1.10,2013-08-06 05:10:00,
2013-08-06 01:25:00,54.1,50.0,29.95,SE,142,0.0,-999.0,85,-99.99,,,0.00,weatherlink.com 1.10,2013-08-06 05:25:00,
2013-08-06 01:40:00,53.8,49.0,29.95,SE,142,0.0,-999.0,85,-99.99,,,0.00,weatherlink.com 1.10,2013-08-06 05:40:00,
2013-08-06 01:55:00,53.6,50.0,29.95,SE,142,0.0,-999.0,86,-99.99,,,0.00,weatherlink.com 1.10,2013-08-06 05:55:00,
2013-08-06 02:10:00,53.6,50.0,29.96,SE,142,0.0,-999.0,86,-99.99,,,0.00,weatherlink.com 1.10,2013-08-06 06:10:00,
2013-08-06 02:25:00,53.6,50.0,29.96,SE,142,0.0,-999.0,87,-99.99,,,0.00,weatherlink.com 1.10,2013-08-06 06:25:00,
2013-08-06 02:40:00,53.5,50.0,29.96,SE,142,0.0,-999.0,87,-99.99,,,0.00,weatherlink.com 1.10,2013-08-06 06:40:00,
2013-08-06 02:55:00,53.1,49.0,29.96,SE,142,0.0,-999.0,87,-99.99,,,0.00,weatherlink.com 1.10,2013-08-06 06:55:00,
2013-08-06 03:10:00,52.5,49.0,29.96,SE,142,0.0,-999.0,87,-99.99,,,0.00,weatherlink.com 1.10,2013-08-06 07:10:00,
2013-08-06 03:25:00,52.5,49.0,29.97,SE,142,0.0,-999.0,88,-99.99,,,0.00,weatherlink.com 1.10,2013-08-06 07:25:00,
2013-08-06 03:40:00,52.2,49.0,29.97,SE,142,0.0,-999.0,88,-99.99,,,0.00,weatherlink.com 1.10,2013-08-06 07:40:00,
2013-08-06 03:55:00,52.0,49.0,29.97,SE,142,0.0,-999.0,88,-99.99,,,0.00,weatherlink.com 1.10,2013-08-06 07:55:00,
2013-08-06 04:10:00,52.0,49.0,29.98,SE,142,0.0,-999.0,89,-99.99,,,0.00,weatherlink.com 1.10,2013-08-06 08:10:00,
2013-08-06 04:25:00,51.9,49.0,29.98,SE,142,0.0,-999.0,89,-99.99,,,0.00,weatherlink.com 1.10,2013-08-06 08:25:00,
2013-08-06 04:40:00,51.7,49.0,29.98,SE,142,0.0,-999.0,89,-99.99,,,0.00,weatherlink.com 1.10,2013-08-06 08:40:00,
2013-08-06 04:55:00,51.7,49.0,29.97,SE,142,0.0,-999.0,89,-99.99,,,0.00,weatherlink.com 1.10,2013-08-06 08:55:00,
2013-08-06 05:10:00,51.6,49.0,29.98,SE,142,0.0,-999.0,89,-99.99,,,0.00,weatherlink.com 1.10,2013-08-06 09:10:00,
2013-08-06 05:25:00,51.3,48.0,29.98,SE,142,0.0,-999.0,89,-99.99,,,0.00,weatherlink.com 1.10,2013-08-06 09:25:00,
2013-08-06 05:40:00,51.0,48.0,29.98,SE,142,0.0,-999.0,89,-99.99,,,0.00,weatherlink.com 1.10,2013-08-06 09:40:00,
2013-08-06 05:55:00,50.8,48.0,29.99,SE,142,0.0,-999.0,90,-99.99,,,0.00,weatherlink.com 1.10,2013-08-06 09:55:00,
2013-08-06 06:10:00,51.6,49.0,30.00,SE,142,0.0,-999.0,90,-99.99,,,0.00,weatherlink.com 1.10,2013-08-06 10:10:00,
2013-08-06 06:25:00,52.6,50.0,30.00,SE,142,0.0,-999.0,90,-99.99,,,0.00,weatherlink.com 1.10,2013-08-06 10:25:00,
2013-08-06 06:40:00,53.3,50.0,30.01,SE,142,0.0,-999.0,89,-99.99,,,0.00,weatherlink.com 1.10,2013-08-06 10:40:00,
2013-08-06 06:55:00,53.6,50.0,30.01,SE,142,0.0,-999.0,88,-99.99,,,0.00,weatherlink.com 1.10,2013-08-06 10:55:00,
2013-08-06 07:10:00,56.0,52.0,30.01,SE,142,0.0,-999.0,85,-99.99,,,0.00,weatherlink.com 1.10,2013-08-06 11:10:00,
2013-08-06 07:25:00,57.0,52.0,30.02,SE,142,0.0,-999.0,83,-99.99,,,0.00,weatherlink.com 1.10,2013-08-06 11:25:00,
2013-08-06 07:40:00,59.2,52.0,30.02,SE,142,0.0,-999.0,77,-99.99,,,0.00,weatherlink.com 1.10,2013-08-06 11:40:00,
2013-08-06 07:56:00,61.2,51.0,30.02,SE,142,0.0,-999.0,70,-99.99,,,0.00,weatherlink.com 1.10,2013-08-06 11:56:00,
2013-08-06 08:11:00,63.7,51.0,30.02,SE,140,1.0,-999.0,63,-99.99,,,0.00,weatherlink.com 1.10,2013-08-06 12:11:00,
2013-08-06 08:26:00,65.2,52.0,30.03,ESE,113,2.0,-999.0,62,-99.99,,,0.00,weatherlink.com 1.10,2013-08-06 12:26:00,
2013-08-06 08:41:00,66.4,52.0,30.03,ESE,113,0.0,-999.0,61,-99.99,,,0.00,weatherlink.com 1.10,2013-08-06 12:41:00,
2013-08-06 08:56:00,67.8,54.0,30.03,ESE,113,0.0,-999.0,61,-99.99,,,0.00,weatherlink.com 1.10,2013-08-06 12:56:00,
2013-08-06 09:11:00,70.1,56.0,30.03,ESE,116,0.0,-999.0,61,-99.99,,,0.00,weatherlink.com 1.10,2013-08-06 13:11:00,
2013-08-06 09:26:00,70.9,47.0,30.03,SSE,150,1.0,-999.0,42,-99.99,,,0.00,weatherlink.com 1.10,2013-08-06 13:26:00,
2013-08-06 09:41:00,71.1,46.0,30.03,South,185,1.0,-999.0,41,-99.99,,,0.00,weatherlink.com 1.10,2013-08-06 13:41:00,
2013-08-06 09:56:00,71.1,44.0,30.03,SE,142,0.0,-999.0,38,-99.99,,,0.00,weatherlink.com 1.10,2013-08-06 13:56:00,
2013-08-06 10:11:00,73.0,45.0,30.04,ESE,103,2.0,-999.0,37,-99.99,,,0.00,weatherlink.com 1.10,2013-08-06 14:11:00,
2013-08-06 10:26:00,72.8,46.0,30.04,South,187,2.0,-999.0,39,-99.99,,,0.00,weatherlink.com 1.10,2013-08-06 14:26:00,
2013-08-06 10:41:00,74.4,47.0,30.04,NE,54,0.0,-999.0,38,-99.99,,,0.00,weatherlink.com 1.10,2013-08-06 14:41:00,
2013-08-06 10:56:00,75.3,47.0,30.03,SE,127,0.0,-999.0,37,-99.99,,,0.00,weatherlink.com 1.10,2013-08-06 14:56:00,
2013-08-06 11:11:00,74.0,47.0,30.03,SSE,161,0.0,-999.0,38,-99.99,,,0.00,weatherlink.com 1.10,2013-08-06 15:11:00,
2013-08-06 11:26:00,73.9,46.0,30.03,ESE,112,2.0,-999.0,37,-99.99,,,0.00,weatherlink.com 1.10,2013-08-06 15:26:00,
2013-08-06 11:41:00,74.2,46.0,30.03,ESE,118,2.0,-999.0,37,-99.99,,,0.00,weatherlink.com 1.10,2013-08-06 15:41:00,
2013-08-06 11:56:00,74.2,45.0,30.03,NE,53,3.0,-999.0,36,-99.99,,,0.00,weatherlink.com 1.10,2013-08-06 15:56:00,
2013-08-06 12:11:00,74.6,45.0,30.03,ESE,102,0.0,-999.0,35,-99.99,,,0.00,weatherlink.com 1.10,2013-08-06 16:11:00,
2013-08-06 12:26:00,75.3,45.0,30.03,ESE,102,2.0,-999.0,34,-99.99,,,0.00,weatherlink.com 1.10,2013-08-06 16:26:00,
2013-08-06 12:41:00,76.0,46.0,30.03,NNE,30,0.0,-999.0,35,-99.99,,,0.00,weatherlink.com 1.10,2013-08-06 16:41:00,
2013-08-06 12:56:00,76.0,47.0,30.03,SW,219,2.0,-999.0,36,-99.99,,,0.00,weatherlink.com 1.10,2013-08-06 16:56:00,
2013-08-06 13:11:00,77.2,47.0,30.03,NW,326,3.0,-999.0,34,-99.99,,,0.00,weatherlink.com 1.10,2013-08-06 17:11:00,
2013-08-06 13:26:00,78.6,47.0,30.04,ESE,110,0.0,-999.0,33,-99.99,,,0.00,weatherlink.com 1.10,2013-08-06 17:26:00,
2013-08-06 13:41:00,78.1,47.0,30.04,East,81,1.0,-999.0,34,-99.99,,,0.00,weatherlink.com 1.10,2013-08-06 17:41:00,
2013-08-06 13:56:00,78.5,48.0,30.04,SSE,167,1.0,-999.0,34,-99.99,,,0.00,weatherlink.com 1.10,2013-08-06 17:56:00,
2013-08-06 14:11:00,77.0,53.0,30.03,ESE,116,2.0,-999.0,43,-99.99,,,0.00,weatherlink.com 1.10,2013-08-06 18:11:00,
2013-08-06 14:26:00,77.2,54.0,30.03,North,6,0.0,-999.0,44,-99.99,,,0.00,weatherlink.com 1.10,2013-08-06 18:26:00,
2013-08-06 14:41:00,75.4,54.0,30.04,SE,142,5.0,-999.0,47,-99.99,,,0.00,weatherlink.com 1.10,2013-08-06 18:41:00,
2013-08-06 14:56:00,74.4,53.0,30.03,SSE,150,1.0,-999.0,48,-99.99,,,0.00,weatherlink.com 1.10,2013-08-06 18:56:00,
2013-08-06 15:12:00,74.9,53.0,30.03,SE,146,3.0,-999.0,46,-99.99,,,0.00,weatherlink.com 1.10,2013-08-06 19:12:00,
2013-08-06 15:27:00,74.9,51.0,30.02,SSE,167,5.0,-999.0,44,-99.99,,,0.00,weatherlink.com 1.10,2013-08-06 19:27:00,
2013-08-06 15:42:00,75.3,52.0,30.03,SW,214,4.0,-999.0,44,-99.99,,,0.00,weatherlink.com 1.10,2013-08-06 19:42:00,
2013-08-06 15:57:00,76.1,49.0,30.03,WSW,243,3.0,-999.0,38,-99.99,,,0.00,weatherlink.com 1.10,2013-08-06 19:57:00,
2013-08-06 16:27:00,76.3,48.0,30.02,SW,223,10.0,-999.0,37,-99.99,,,0.00,weatherlink.com 1.10,2013-08-06 20:27:00,
2013-08-06 16:42:00,76.0,47.0,30.02,SSW,208,6.0,-999.0,36,-99.99,,,0.00,weatherlink.com 1.10,2013-08-06 20:42:00,
2013-08-06 16:57:00,75.6,48.0,30.03,SW,216,3.0,-999.0,38,-99.99,,,0.00,weatherlink.com 1.10,2013-08-06 20:57:00,
2013-08-06 17:12:00,75.3,48.0,30.03,SW,226,2.0,-999.0,38,-99.99,,,0.00,weatherlink.com 1.10,2013-08-06 21:12:00,
2013-08-06 17:27:00,75.1,48.0,30.03,SW,218,6.0,-999.0,38,-99.99,,,0.00,weatherlink.com 1.10,2013-08-06 21:27:00,
2013-08-06 17:42:00,75.3,48.0,30.03,SW,230,3.0,-999.0,38,-99.99,,,0.00,weatherlink.com 1.10,2013-08-06 21:42:00,
2013-08-06 17:57:00,75.1,49.0,30.03,SW,225,1.0,-999.0,40,-99.99,,,0.00,weatherlink.com 1.10,2013-08-06 21:57:00,
2013-08-06 18:12:00,74.6,49.0,30.03,WSW,240,4.0,-999.0,40,-99.99,,,0.00,weatherlink.com 1.10,2013-08-06 22:12:00,
2013-08-06 18:27:00,74.0,49.0,30.03,SW,236,0.0,-999.0,42,-99.99,,,0.00,weatherlink.com 1.10,2013-08-06 22:27:00,
2013-08-06 18:42:00,73.7,50.0,30.03,SW,221,1.0,-999.0,43,-99.99,,,0.00,weatherlink.com 1.10,2013-08-06 22:42:00,
2013-08-06 18:57:00,73.0,50.0,30.04,SW,232,0.0,-999.0,45,-99.99,,,0.00,weatherlink.com 1.10,2013-08-06 22:57:00,
2013-08-06 19:12:00,72.3,51.0,30.04,SW,236,0.0,-999.0,47,-99.99,,,0.00,weatherlink.com 1.10,2013-08-06 23:12:00,
2013-08-06 19:27:00,71.1,51.0,30.04,SW,222,2.0,-999.0,49,-99.99,,,0.00,weatherlink.com 1.10,2013-08-06 23:27:00,
2013-08-06 19:42:00,70.3,51.0,30.04,SSW,212,0.0,-999.0,51,-99.99,,,0.00,weatherlink.com 1.10,2013-08-06 23:42:00,
2013-08-06 19:57:00,69.3,52.0,30.04,SW,216,0.0,-999.0,54,-99.99,,,0.00,weatherlink.com 1.10,2013-08-06 23:57:00,
2013-08-06 20:12:00,68.3,52.0,30.05,SSW,211,0.0,-999.0,56,-99.99,,,0.00,weatherlink.com 1.10,2013-08-07 00:12:00,
2013-08-06 20:27:00,67.3,52.0,30.05,SW,223,0.0,-999.0,58,-99.99,,,0.00,weatherlink.com 1.10,2013-08-07 00:27:00,
2013-08-06 20:42:00,66.8,52.0,30.06,SSW,205,0.0,-999.0,60,-99.99,,,0.00,weatherlink.com 1.10,2013-08-07 00:42:00,
2013-08-06 20:57:00,65.5,53.0,30.06,SW,236,1.0,-999.0,65,-99.99,,,0.00,weatherlink.com 1.10,2013-08-07 00:57:00,
2013-08-06 21:12:00,64.2,53.0,30.06,SW,235,0.0,-999.0,68,-99.99,,,0.00,weatherlink.com 1.10,2013-08-07 01:12:00,
2013-08-06 21:27:00,63.7,54.0,30.07,SW,235,0.0,-999.0,71,-99.99,,,0.00,weatherlink.com 1.10,2013-08-07 01:27:00,
2013-08-06 21:42:00,63.9,54.0,30.07,WSW,238,0.0,-999.0,71,-99.99,,,0.00,weatherlink.com 1.10,2013-08-07 01:42:00,
2013-08-06 21:57:00,63.7,55.0,30.06,WSW,238,0.0,-999.0,72,-99.99,,,0.00,weatherlink.com 1.10,2013-08-07 01:57:00,
2013-08-06 22:12:00,63.1,55.0,30.06,WSW,238,0.0,-999.0,74,-99.99,,,0.00,weatherlink.com 1.10,2013-08-07 02:12:00,
2013-08-06 22:27:00,63.4,55.0,30.06,SW,236,0.0,-999.0,74,-99.99,,,0.00,weatherlink.com 1.10,2013-08-07 02:27:00,
2013-08-06 22:42:00,62.6,55.0,30.06,SW,236,0.0,-999.0,76,-99.99,,,0.00,weatherlink.com 1.10,2013-08-07 02:42:00,
2013-08-06 22:57:00,62.4,55.0,30.05,SW,236,0.0,-999.0,78,-99.99,,,0.00,weatherlink.com 1.10,2013-08-07 02:57:00,
2013-08-06 23:12:00,61.8,55.0,30.06,SW,236,0.0,-999.0,79,-99.99,,,0.00,weatherlink.com 1.10,2013-08-07 03:12:00,
2013-08-06 23:27:00,61.3,55.0,30.06,SW,236,0.0,-999.0,80,-99.99,,,0.00,weatherlink.com 1.10,2013-08-07 03:27:00,
2013-08-06 23:42:00,60.5,55.0,30.06,SW,236,0.0,-999.0,82,-99.99,,,0.00,weatherlink.com 1.10,2013-08-07 03:42:00,
2013-08-06 23:57:00,60.1,55.0,30.06,SW,236,0.0,-999.0,83,-99.99,,,0.00,weatherlink.com 1.10,2013-08-07 03:57:00,